Time;durP1;ratioP1;P1;durP2;ratioP2;P2;SDS_P1;SDS_P2;PMS_P1;PMS_P2;Temp;Humidity;BMP_temperature;BMP_pressure;BME280_temperature;BME280_humidity;BME280_pressure;Samples;Min_cycle;Max_cycle;Signal;HPM_P1;HPM_P2
2022/06/26 00:01:42;;;;;;;27.27;14.27;;;;;;;;;;4949547;28;95759;-73
2022/06/26 00:04:08;;;;;;;24.52;15.13;;;;;;;;;;4947944;28;96746;-73
2022/06/26 00:06:34;;;;;;;28.85;15.20;;;;;;;;;;4967145;28;97520;-73
2022/06/26 00:09:01;;;;;;;31.30;16.10;;;;;;;;;;4948484;28;95891;-74
2022/06/26 00:11:27;;;;;;;22.08;13.13;;;;;;;;;;4964330;28;96789;-73
2022/06/26 00:14:07;;;;;;;29.25;14.18;;;;;;;;;;4960027;28;95346;-73
2022/06/26 00:16:33;;;;;;;22.77;14.02;;;;;;;;;;4949200;28;97158;-73
2022/06/26 00:19:00;;;;;;;20.55;14.18;;;;;;;;;;4951012;28;97413;-73
2022/06/26 00:21:26;;;;;;;23.73;14.70;;;;;;;;;;4961825;28;96158;-73
2022/06/26 00:23:52;;;;;;;27.25;16.42;;;;;;;;;;4951981;28;96826;-73
2022/06/26 00:26:19;;;;;;;30.20;15.70;;;;;;;;;;4950400;28;97713;-73
2022/06/26 00:28:45;;;;;;;27.10;15.15;;;;;;;;;;4950867;28;96543;-73
2022/06/26 00:31:11;;;;;;;26.23;15.45;;;;;;;;;;4951970;28;96713;-73
2022/06/26 00:33:38;;;;;;;26.35;14.63;;;;;;;;;;4955146;28;97657;-73
2022/06/26 00:36:05;;;;;;;26.52;15.55;;;;;;;;;;4957578;28;97011;-72
2022/06/26 00:38:31;;;;;;;24.63;14.60;;;;;;;;;;4951735;28;96250;-73
2022/06/26 00:40:57;;;;;;;25.02;15.50;;;;;;;;;;4950670;28;95487;-72
2022/06/26 00:43:28;;;;;;;24.23;15.73;;;;;;;;;;4949181;28;97241;-73
2022/06/26 00:45:55;;;;;;;26.23;15.85;;;;;;;;;;4950006;28;97363;-73
2022/06/26 00:48:21;;;;;;;28.70;15.85;;;;;;;;;;4951804;28;96058;-73
2022/06/26 00:50:48;;;;;;;28.63;16.30;;;;;;;;;;4959529;28;97296;-72
2022/06/26 00:53:14;;;;;;;26.85;16.23;;;;;;;;;;4949377;28;97717;-72
2022/06/26 00:55:40;;;;;;;24.80;15.07;;;;;;;;;;4958369;28;96360;-72
2022/06/26 00:58:07;;;;;;;31.67;16.42;;;;;;;;;;4960022;28;97385;-72
2022/06/26 01:00:33;;;;;;;29.25;16.05;;;;;;;;;;4958378;28;95611;-72
2022/06/26 01:03:00;;;;;;;31.75;15.82;;;;;;;;;;4950338;28;97233;-74
2022/06/26 01:05:27;;;;;;;30.33;14.85;;;;;;;;;;4950153;28;97270;-73
2022/06/26 01:07:53;;;;;;;27.38;16.02;;;;;;;;;;4960954;28;95863;-73
2022/06/26 01:10:20;;;;;;;30.85;15.40;;;;;;;;;;4956265;28;96918;-74
2022/06/26 01:12:47;;;;;;;29.08;15.45;;;;;;;;;;4957014;28;97292;-73
2022/06/26 01:15:14;;;;;;;30.52;15.10;;;;;;;;;;4953929;28;95357;-73
2022/06/26 01:17:40;;;;;;;28.08;15.05;;;;;;;;;;4956915;28;97244;-73
2022/06/26 01:20:07;;;;;;;25.75;13.20;;;;;;;;;;4960625;28;95588;-73
2022/06/26 01:22:34;;;;;;;26.90;14.02;;;;;;;;;;4946209;28;97083;-73
2022/06/26 01:25:00;;;;;;;25.80;13.98;;;;;;;;;;4948405;28;97511;-73
2022/06/26 01:27:26;;;;;;;27.98;14.05;;;;;;;;;;4951776;28;95202;-73
2022/06/26 01:29:53;;;;;;;22.05;13.65;;;;;;;;;;4954673;28;96742;-73
2022/06/26 01:32:19;;;;;;;28.75;14.95;;;;;;;;;;4954749;28;97732;-73
2022/06/26 01:34:46;;;;;;;26.08;15.30;;;;;;;;;;4951907;28;95375;-73
2022/06/26 01:37:12;;;;;;;26.80;14.32;;;;;;;;;;4954847;28;97141;-73
2022/06/26 01:39:38;;;;;;;26.17;14.52;;;;;;;;;;4958010;28;97319;-73
2022/06/26 01:42:05;;;;;;;30.13;14.70;;;;;;;;;;4966007;28;96710;-73
2022/06/26 01:44:31;;;;;;;25.20;15.10;;;;;;;;;;4960893;28;97428;-73
2022/06/26 01:46:57;;;;;;;27.63;15.23;;;;;;;;;;4952253;28;95333;-73
2022/06/26 01:49:25;;;;;;;29.27;15.20;;;;;;;;;;4952553;28;96853;-73
2022/06/26 01:51:53;;;;;;;31.63;16.50;;;;;;;;;;4950657;28;96314;-71
2022/06/26 01:54:20;;;;;;;39.05;15.85;;;;;;;;;;4949724;28;95357;-74
2022/06/26 01:56:47;;;;;;;31.35;16.55;;;;;;;;;;4956128;28;97417;-74
2022/06/26 01:59:13;;;;;;;36.13;17.38;;;;;;;;;;4958372;28;97597;-73
2022/06/26 02:01:39;;;;;;;38.95;17.77;;;;;;;;;;4949669;28;97278;-73
2022/06/26 02:04:06;;;;;;;30.15;17.17;;;;;;;;;;4951042;28;97283;-72
2022/06/26 02:06:32;;;;;;;39.63;19.38;;;;;;;;;;4955047;28;96212;-73
2022/06/26 02:08:59;;;;;;;36.55;19.08;;;;;;;;;;4957218;28;96985;-73
2022/06/26 02:14:10;;;;;;;33.45;19.70;;;;;;;;;;4955501;28;95879;-72
2022/06/26 02:16:36;;;;;;;38.25;20.17;;;;;;;;;;4950618;28;97073;-73
2022/06/26 02:19:03;;;;;;;39.53;21.45;;;;;;;;;;4963023;28;97286;-72
2022/06/26 02:21:29;;;;;;;36.88;21.75;;;;;;;;;;4954421;28;96054;-73
2022/06/26 02:23:56;;;;;;;39.92;21.10;;;;;;;;;;4958378;28;97654;-73
2022/06/26 02:26:23;;;;;;;44.20;22.00;;;;;;;;;;4977980;28;95861;-72
2022/06/26 02:28:50;;;;;;;43.75;22.88;;;;;;;;;;4961034;28;96977;-73
2022/06/26 02:31:16;;;;;;;41.47;22.27;;;;;;;;;;4951794;28;97741;-73
2022/06/26 02:33:43;;;;;;;40.67;21.88;;;;;;;;;;4953223;28;96600;-72
2022/06/26 02:36:09;;;;;;;42.72;22.58;;;;;;;;;;4949859;28;97326;-73
2022/06/26 02:38:36;;;;;;;42.63;22.40;;;;;;;;;;4948925;28;97882;-73
2022/06/26 02:41:02;;;;;;;40.80;22.02;;;;;;;;;;4955793;28;95563;-73
2022/06/26 02:43:28;;;;;;;39.85;20.98;;;;;;;;;;4965656;28;96839;-72
2022/06/26 02:45:55;;;;;;;42.97;22.35;;;;;;;;;;4969209;28;95478;-72
2022/06/26 02:48:22;;;;;;;45.85;23.08;;;;;;;;;;4956231;28;97018;-72
2022/06/26 02:50:48;;;;;;;41.47;22.33;;;;;;;;;;4946590;28;97327;-73
2022/06/26 02:53:15;;;;;;;50.90;22.92;;;;;;;;;;4955155;28;96028;-72
2022/06/26 02:55:42;;;;;;;36.83;21.25;;;;;;;;;;4948278;28;96821;-73
2022/06/26 02:58:08;;;;;;;40.78;22.85;;;;;;;;;;4947598;28;97624;-73
2022/06/26 03:00:35;;;;;;;42.13;22.25;;;;;;;;;;4959076;28;96968;-72
2022/06/26 03:03:02;;;;;;;40.28;22.83;;;;;;;;;;4951345;28;96856;-72
2022/06/26 03:05:31;;;;;;;38.45;21.70;;;;;;;;;;4950712;28;97995;-72
2022/06/26 03:07:58;;;;;;;38.15;21.10;;;;;;;;;;4963222;28;96860;-73
2022/06/26 03:10:24;;;;;;;46.13;22.42;;;;;;;;;;4958035;28;97493;-72
2022/06/26 03:12:50;;;;;;;45.63;22.45;;;;;;;;;;4958370;28;95372;-72
2022/06/26 03:15:17;;;;;;;40.22;20.60;;;;;;;;;;4952110;28;97127;-73
2022/06/26 03:17:44;;;;;;;42.55;21.45;;;;;;;;;;4960409;28;97350;-73
2022/06/26 03:20:12;;;;;;;43.67;22.13;;;;;;;;;;4954815;28;95972;-72
2022/06/26 03:22:38;;;;;;;44.83;21.67;;;;;;;;;;4948075;28;96602;-72
2022/06/26 03:25:05;;;;;;;43.78;21.83;;;;;;;;;;4947856;28;97430;-72
2022/06/26 03:27:32;;;;;;;51.13;21.75;;;;;;;;;;4950507;28;96199;-72
2022/06/26 03:29:59;;;;;;;56.33;20.50;;;;;;;;;;4949307;28;97564;-73
2022/06/26 03:32:26;;;;;;;42.65;20.27;;;;;;;;;;4959623;28;95798;-72
2022/06/26 03:34:52;;;;;;;47.63;21.10;;;;;;;;;;4955606;28;96974;-73
2022/06/26 03:37:19;;;;;;;44.17;19.88;;;;;;;;;;4948157;28;97361;-72
2022/06/26 03:39:45;;;;;;;48.35;20.63;;;;;;;;;;4948677;28;96425;-72
2022/06/26 03:42:12;;;;;;;43.63;18.85;;;;;;;;;;4948496;28;96889;-72
2022/06/26 03:44:38;;;;;;;43.85;19.08;;;;;;;;;;4947179;28;97348;-72
2022/06/26 03:47:04;;;;;;;43.83;20.08;;;;;;;;;;4947389;28;97460;-73
2022/06/26 03:49:31;;;;;;;48.20;20.15;;;;;;;;;;4950639;28;96021;-73
2022/06/26 03:51:57;;;;;;;43.03;18.45;;;;;;;;;;4959955;28;96526;-72
2022/06/26 03:54:25;;;;;;;52.05;19.67;;;;;;;;;;4956224;28;96874;-72
2022/06/26 03:56:51;;;;;;;44.47;19.55;;;;;;;;;;4968162;28;96091;-72
2022/06/26 03:59:18;;;;;;;43.13;18.05;;;;;;;;;;4953061;28;96926;-72
2022/06/26 04:01:44;;;;;;;46.03;20.15;;;;;;;;;;4950364;28;98905;-72
2022/06/26 04:04:10;;;;;;;46.03;19.52;;;;;;;;;;4951456;28;97360;-72
2022/06/26 04:06:37;;;;;;;47.70;19.45;;;;;;;;;;4951580;28;95436;-72
2022/06/26 04:09:03;;;;;;;50.17;18.70;;;;;;;;;;4962011;28;96907;-72
2022/06/26 04:11:30;;;;;;;46.83;18.95;;;;;;;;;;4957891;28;96362;-72
2022/06/26 04:13:56;;;;;;;37.40;17.73;;;;;;;;;;4953405;28;96797;-72
2022/06/26 04:16:23;;;;;;;41.25;19.05;;;;;;;;;;4950926;28;99544;-72
2022/06/26 04:18:49;;;;;;;48.47;18.70;;;;;;;;;;4953272;28;95352;-72
2022/06/26 04:21:16;;;;;;;50.15;18.70;;;;;;;;;;4953005;28;97002;-72
2022/06/26 04:23:42;;;;;;;45.08;18.02;;;;;;;;;;4951218;28;97319;-72
2022/06/26 04:26:09;;;;;;;44.88;18.77;;;;;;;;;;4955226;28;96565;-72
2022/06/26 04:28:35;;;;;;;48.83;17.48;;;;;;;;;;4949792;28;97068;-72
2022/06/26 04:31:01;;;;;;;42.42;18.63;;;;;;;;;;4952727;28;97085;-72
2022/06/26 04:33:28;;;;;;;45.08;18.65;;;;;;;;;;4962695;28;96752;-72
2022/06/26 04:35:54;;;;;;;39.38;17.27;;;;;;;;;;4961445;28;98067;-72
2022/06/26 04:38:20;;;;;;;41.97;17.02;;;;;;;;;;4961260;28;96315;-72
2022/06/26 04:40:47;;;;;;;43.10;17.58;;;;;;;;;;4962994;28;97009;-72
2022/06/26 04:43:13;;;;;;;44.17;18.00;;;;;;;;;;4960402;28;98177;-72
2022/06/26 04:45:40;;;;;;;37.28;17.00;;;;;;;;;;4950392;28;95547;-72
2022/06/26 04:48:06;;;;;;;37.40;17.15;;;;;;;;;;4951266;28;96664;-72
2022/06/26 04:50:33;;;;;;;40.88;17.73;;;;;;;;;;4951789;28;97398;-72
2022/06/26 04:52:59;;;;;;;43.53;17.27;;;;;;;;;;4958580;28;95377;-72
2022/06/26 04:55:26;;;;;;;40.15;17.30;;;;;;;;;;4966436;28;97305;-72
2022/06/26 04:57:52;;;;;;;41.63;17.33;;;;;;;;;;4970483;28;95223;-72
2022/06/26 05:00:19;;;;;;;38.80;16.40;;;;;;;;;;4968083;28;96906;-72
2022/06/26 19:51:56;;;;;;;9.85;2.15;;;;;;;;;;5105608;27;95694;-72
2022/06/26 19:54:23;;;;;;;8.45;2.45;;;;;;;;;;5073814;27;96688;-72
2022/06/26 19:56:49;;;;;;;5.75;2.35;;;;;;;;;;5070130;27;95600;-71
2022/06/26 20:28:32;;;;;;;7.50;3.00;;;;;;;;;;4984002;28;95793;-73
2022/06/26 20:30:58;;;;;;;10.52;3.25;;;;;;;;;;4989052;28;97362;-73
2022/06/26 20:33:26;;;;;;;10.38;3.20;;;;;;;;;;4991936;28;95648;-73
2022/06/26 20:35:52;;;;;;;7.18;2.97;;;;;;;;;;4991275;28;95661;-72
2022/06/26 20:38:19;;;;;;;7.72;3.33;;;;;;;;;;4984891;28;97507;-72
2022/06/26 20:40:47;;;;;;;7.38;3.05;;;;;;;;;;4979145;28;95520;-73
2022/06/26 20:43:14;;;;;;;24.25;3.90;;;;;;;;;;4970632;28;96686;-72
2022/06/26 20:45:41;;;;;;;11.48;3.40;;;;;;;;;;4983974;28;97291;-73
2022/06/26 20:48:09;;;;;;;8.48;3.45;;;;;;;;;;4988413;28;95583;-73
2022/06/26 20:50:35;;;;;;;5.95;3.45;;;;;;;;;;4983314;28;97376;-72
2022/06/26 20:53:02;;;;;;;6.60;3.20;;;;;;;;;;4983554;28;96934;-72
2022/06/26 20:55:28;;;;;;;8.57;3.60;;;;;;;;;;4975664;28;96772;-73
2022/06/26 20:57:54;;;;;;;8.90;3.35;;;;;;;;;;4980148;28;97869;-72
2022/06/26 21:00:21;;;;;;;7.05;3.65;;;;;;;;;;4990746;28;95662;-72
2022/06/26 21:02:47;;;;;;;9.05;3.30;;;;;;;;;;4985815;28;96811;-72
2022/06/26 21:05:14;;;;;;;9.55;3.63;;;;;;;;;;4985006;28;96796;-71
2022/06/26 21:07:40;;;;;;;7.18;3.40;;;;;;;;;;4986523;28;95828;-73
2022/06/26 21:10:07;;;;;;;9.38;3.20;;;;;;;;;;4992453;28;97213;-72
2022/06/26 21:12:33;;;;;;;7.53;3.30;;;;;;;;;;4991242;28;95559;-73
2022/06/26 21:15:01;;;;;;;9.18;3.97;;;;;;;;;;4993170;28;96859;-72
2022/06/26 21:17:29;;;;;;;9.65;3.97;;;;;;;;;;4995594;28;96190;-72
2022/06/26 21:19:56;;;;;;;17.38;4.22;;;;;;;;;;4995178;28;96654;-71
2022/06/26 21:22:23;;;;;;;7.00;3.72;;;;;;;;;;4985111;28;97087;-72
2022/06/26 21:24:49;;;;;;;7.97;3.22;;;;;;;;;;4999976;28;97623;-71
2022/06/26 21:27:16;;;;;;;6.88;3.75;;;;;;;;;;4997721;28;95716;-72
2022/06/26 21:29:42;;;;;;;6.65;3.92;;;;;;;;;;4999078;28;96773;-72
2022/06/26 21:32:08;;;;;;;11.18;4.13;;;;;;;;;;4991626;28;97242;-72
2022/06/26 21:34:35;;;;;;;6.65;4.00;;;;;;;;;;4985181;28;97478;-72
2022/06/26 21:37:02;;;;;;;15.38;4.50;;;;;;;;;;4984985;28;97354;-72
2022/06/26 21:39:28;;;;;;;7.25;4.18;;;;;;;;;;4986035;28;95706;-72
2022/06/26 21:41:55;;;;;;;8.30;4.20;;;;;;;;;;4983803;28;96938;-71
2022/06/26 21:44:21;;;;;;;11.73;4.80;;;;;;;;;;4969390;28;96692;-72
2022/06/26 21:46:48;;;;;;;10.80;4.00;;;;;;;;;;4985995;28;95296;-72
2022/06/26 21:49:15;;;;;;;9.38;4.20;;;;;;;;;;4983174;28;96699;-72
2022/06/26 21:51:41;;;;;;;11.40;4.43;;;;;;;;;;4980510;28;97445;-73
2022/06/26 21:54:07;;;;;;;22.60;4.88;;;;;;;;;;4987538;28;96098;-72
2022/06/26 21:56:34;;;;;;;10.65;4.32;;;;;;;;;;4976460;28;97584;-72
2022/06/26 21:59:02;;;;;;;8.85;4.72;;;;;;;;;;4980393;28;95380;-72
2022/06/26 22:01:29;;;;;;;8.73;4.05;;;;;;;;;;4979650;28;95828;-72
2022/06/26 22:03:56;;;;;;;8.70;4.20;;;;;;;;;;4978078;28;97275;-73
2022/06/26 22:06:22;;;;;;;6.50;4.20;;;;;;;;;;4980064;28;95382;-72
2022/06/26 22:08:49;;;;;;;9.02;4.60;;;;;;;;;;4991626;28;96789;-72
2022/06/26 22:11:15;;;;;;;8.88;4.45;;;;;;;;;;4963116;28;96325;-72
2022/06/26 22:13:42;;;;;;;10.13;4.45;;;;;;;;;;4979672;28;95821;-72
2022/06/26 22:16:09;;;;;;;7.82;4.40;;;;;;;;;;4988532;28;97474;-71
2022/06/26 22:18:35;;;;;;;14.98;4.40;;;;;;;;;;4984622;28;96672;-71
2022/06/26 22:21:01;;;;;;;6.25;3.72;;;;;;;;;;4983598;28;96575;-72
2022/06/26 22:23:28;;;;;;;9.50;4.38;;;;;;;;;;4980934;28;97743;-71
2022/06/26 22:28:39;;;;;;;7.88;3.65;;;;;;;;;;4986559;28;96279;-72
2022/06/26 22:31:06;;;;;;;11.80;4.30;;;;;;;;;;4987059;28;97660;-72
2022/06/26 22:33:32;;;;;;;8.52;4.35;;;;;;;;;;4984859;28;95417;-71
2022/06/26 22:35:59;;;;;;;8.77;4.32;;;;;;;;;;4987067;28;97089;-72
2022/06/26 22:38:25;;;;;;;8.88;5.45;;;;;;;;;;4968685;28;96798;-73
2022/06/26 22:40:51;;;;;;;9.13;5.18;;;;;;;;;;4979872;28;97335;-72
2022/06/26 22:43:18;;;;;;;8.60;5.32;;;;;;;;;;4971122;28;97978;-73
2022/06/26 22:45:45;;;;;;;12.30;5.70;;;;;;;;;;4983740;28;95767;-72
2022/06/26 22:48:11;;;;;;;10.07;6.28;;;;;;;;;;4986924;28;97562;-72
2022/06/26 22:50:37;;;;;;;13.02;6.15;;;;;;;;;;4978288;28;96249;-72
2022/06/26 22:53:04;;;;;;;12.10;5.60;;;;;;;;;;4976573;28;95388;-73
2022/06/26 22:55:30;;;;;;;8.95;5.68;;;;;;;;;;4984001;28;96922;-73
2022/06/26 22:57:57;;;;;;;12.15;5.95;;;;;;;;;;4975181;28;97630;-73
2022/06/26 23:00:23;;;;;;;10.32;6.38;;;;;;;;;;4984007;28;96671;-72
2022/06/26 23:02:49;;;;;;;8.77;6.07;;;;;;;;;;4978434;28;96060;-73
2022/06/26 23:05:16;;;;;;;13.57;6.65;;;;;;;;;;4981867;28;95780;-72
2022/06/26 23:07:43;;;;;;;8.93;5.70;;;;;;;;;;4985932;28;96725;-72
2022/06/26 23:10:10;;;;;;;8.82;6.03;;;;;;;;;;4976505;28;97389;-72
2022/06/26 23:12:36;;;;;;;13.60;6.38;;;;;;;;;;4970239;28;97049;-72
2022/06/26 23:15:04;;;;;;;10.18;6.68;;;;;;;;;;4983643;28;98392;-72
2022/06/26 23:17:31;;;;;;;17.67;7.00;;;;;;;;;;4974002;28;96792;-73
2022/06/26 23:19:59;;;;;;;12.85;6.90;;;;;;;;;;4977354;28;95773;-71
2022/06/26 23:22:25;;;;;;;12.68;7.18;;;;;;;;;;4984772;28;97265;-71
2022/06/26 23:24:51;;;;;;;15.30;7.38;;;;;;;;;;4974158;28;97160;-73
2022/06/26 23:27:18;;;;;;;19.02;7.38;;;;;;;;;;4973702;28;96836;-72
2022/06/26 23:29:44;;;;;;;9.23;6.40;;;;;;;;;;4955370;28;96368;-72
2022/06/26 23:32:10;;;;;;;14.23;6.38;;;;;;;;;;4979409;28;95358;-73
2022/06/26 23:34:37;;;;;;;10.77;6.53;;;;;;;;;;4982637;28;97191;-73
2022/06/26 23:37:05;;;;;;;12.35;6.32;;;;;;;;;;4977853;28;97421;-72
2022/06/26 23:39:32;;;;;;;12.05;7.15;;;;;;;;;;4976811;28;96641;-73
2022/06/26 23:41:58;;;;;;;10.25;6.43;;;;;;;;;;4988621;28;96560;-72
2022/06/26 23:44:25;;;;;;;11.05;6.75;;;;;;;;;;4984433;28;95437;-72
2022/06/26 23:46:51;;;;;;;10.95;6.28;;;;;;;;;;4984294;28;96770;-72
2022/06/26 23:49:18;;;;;;;11.77;6.50;;;;;;;;;;4971580;28;97688;-71
2022/06/26 23:51:44;;;;;;;12.05;6.63;;;;;;;;;;4973693;28;95814;-73
2022/06/26 23:54:10;;;;;;;11.30;6.60;;;;;;;;;;4985008;28;95994;-73
2022/06/26 23:56:37;;;;;;;11.05;6.72;;;;;;;;;;4984144;28;96219;-73
2022/06/26 23:59:03;;;;;;;13.38;6.43;;;;;;;;;;4983796;28;96624;-73
